Time;durP1;ratioP1;P1;durP2;ratioP2;P2;SDS_P1;SDS_P2;PMS_P1;PMS_P2;Temp;Humidity;BMP_temperature;BMP_pressure;BME280_temperature;BME280_humidity;BME280_pressure;Samples;Min_cycle;Max_cycle;Signal;HPM_P1;HPM_P2
2021/01/06 00:00:41;;;;;;;0.40;0.40;;;;;;;3.91;100.00;100807.28;5073049;28;20452;-64
2021/01/06 00:03:08;;;;;;;0.40;0.30;;;;;;;3.89;100.00;100809.38;5073116;28;20542;-65
2021/01/06 00:05:34;;;;;;;0.40;0.30;;;;;;;3.95;100.00;100798.50;5072980;28;20532;-64
2021/01/06 00:08:00;;;;;;;1.47;0.57;;;;;;;3.95;100.00;100798.50;5073241;28;20445;-65
2021/01/06 00:10:28;;;;;;;0.47;0.30;;;;;;;3.97;100.00;100787.50;5072580;28;20449;-64
2021/01/06 00:12:55;;;;;;;0.40;0.27;;;;;;;3.99;100.00;100796.13;5072712;28;20448;-64
2021/01/06 00:15:24;;;;;;;0.57;0.40;;;;;;;3.97;100.00;100795.56;5073076;28;20470;-65
2021/01/06 00:17:51;;;;;;;0.40;0.30;;;;;;;3.96;100.00;100805.47;5073067;28;20527;-64
2021/01/06 00:20:19;;;;;;;0.40;0.30;;;;;;;3.94;100.00;100794.19;5072568;28;20457;-64
2021/01/06 00:22:45;;;;;;;2.63;0.60;;;;;;;4.01;100.00;100797.47;5072934;28;20469;-65
2021/01/06 00:25:17;;;;;;;0.50;0.40;;;;;;;3.91;100.00;100796.56;5072442;28;20957;-65
2021/01/06 00:27:43;;;;;;;0.60;0.57;;;;;;;3.93;100.00;100791.75;5072782;28;20483;-64
2021/01/06 00:30:14;;;;;;;0.73;0.50;;;;;;;3.95;100.00;100792.34;5072721;28;20452;-64
2021/01/06 00:32:40;;;;;;;0.40;0.30;;;;;;;4.01;100.00;100788.63;5072734;28;20426;-64
2021/01/06 00:35:08;;;;;;;1.47;1.23;;;;;;;4.02;100.00;100793.72;5072244;28;20485;-66
2021/01/06 00:37:35;;;;;;;0.93;0.87;;;;;;;4.00;100.00;100793.19;5073186;28;20437;-65
2021/01/06 00:40:01;;;;;;;1.37;1.27;;;;;;;4.04;100.00;100793.50;5076664;28;20441;-66
2021/01/06 00:42:27;;;;;;;0.60;0.60;;;;;;;4.00;100.00;100784.34;5076583;28;20441;-66
2021/01/06 00:44:53;;;;;;;0.40;0.30;;;;;;;4.01;100.00;100788.63;5076086;28;20556;-66
2021/01/06 00:47:19;;;;;;;0.60;0.60;;;;;;;3.92;100.00;100785.59;5076520;28;20476;-64
2021/01/06 00:49:46;;;;;;;0.40;0.20;;;;;;;4.00;100.00;100785.16;5076742;28;20445;-65
2021/01/06 00:52:13;;;;;;;0.40;0.30;;;;;;;3.93;100.00;100784.53;5076132;28;20822;-66
2021/01/06 00:54:39;;;;;;;0.40;0.30;;;;;;;3.97;100.00;100776.78;5076213;28;20485;-65
2021/01/06 00:57:06;;;;;;;0.40;0.20;;;;;;;3.97;100.00;100782.16;5076264;28;20484;-66
2021/01/06 00:59:32;;;;;;;0.40;0.20;;;;;;;3.99;100.00;100780.03;5075899;28;20954;-64
2021/01/06 01:01:58;;;;;;;0.40;0.30;;;;;;;3.97;100.00;100782.16;5076452;28;20528;-65
2021/01/06 01:04:24;;;;;;;0.40;0.30;;;;;;;3.90;100.00;100778.88;5076035;28;20469;-65
2021/01/06 01:06:52;;;;;;;1.80;0.97;;;;;;;3.92;100.00;100774.06;5076389;28;20445;-65
2021/01/06 01:09:20;;;;;;;0.70;0.50;;;;;;;3.97;100.00;100768.75;5076094;28;20811;-65
2021/01/06 01:11:46;;;;;;;0.40;0.30;;;;;;;3.96;100.00;100775.19;5076375;28;20483;-66
2021/01/06 01:14:12;;;;;;;3.80;0.57;;;;;;;3.94;100.00;100774.59;5075994;28;20472;-65
2021/01/06 01:16:41;;;;;;;0.50;0.30;;;;;;;3.87;100.00;100763.31;5076517;28;20449;-65
2021/01/06 01:19:08;;;;;;;0.40;0.20;;;;;;;3.96;100.00;100772.50;5075869;28;20440;-65
2021/01/06 01:21:34;;;;;;;0.50;0.40;;;;;;;3.96;100.00;100764.47;5076139;28;20441;-65
2021/01/06 01:24:01;;;;;;;0.40;0.20;;;;;;;3.97;100.00;100761.53;5075559;28;20533;-65
2021/01/06 01:26:28;;;;;;;0.40;0.20;;;;;;;3.92;100.00;100766.84;5076068;28;20451;-65
2021/01/06 01:28:54;;;;;;;0.40;0.20;;;;;;;3.96;100.00;100749.19;5075420;28;20445;-65
2021/01/06 01:31:21;;;;;;;0.40;0.30;;;;;;;4.02;100.00;100752.72;5076307;28;20493;-66
2021/01/06 01:33:47;;;;;;;0.60;0.43;;;;;;;4.00;100.00;100750.31;5075364;28;20496;-67
2021/01/06 01:36:13;;;;;;;1.47;0.63;;;;;;;3.85;100.00;100747.47;5076015;28;20499;-66
2021/01/06 01:38:40;;;;;;;0.40;0.30;;;;;;;3.77;100.00;100750.59;5076031;28;20472;-66
2021/01/06 01:41:08;;;;;;;0.40;0.30;;;;;;;3.76;100.00;100741.75;5075415;28;20455;-67
2021/01/06 01:43:37;;;;;;;0.63;0.60;;;;;;;3.73;100.00;100744.94;5075866;28;20457;-65
2021/01/06 01:46:44;;;;;;;0.40;0.30;;;;;;;3.69;100.00;100743.81;5075471;28;20445;-66
2021/01/06 01:49:21;;;;;;;0.40;0.30;;;;;;;3.72;100.00;100737.97;5075141;28;20800;-66
2021/01/06 01:51:54;;;;;;;0.40;0.30;;;;;;;3.61;100.00;100725.50;5075562;28;20429;-66
2021/01/06 01:54:21;;;;;;;0.87;0.50;;;;;;;3.61;100.00;100733.53;5074780;28;20493;-66
2021/01/06 01:56:52;;;;;;;0.40;0.30;;;;;;;3.63;100.00;100731.44;5075459;28;20472;-66
2021/01/06 01:59:25;;;;;;;0.40;0.27;;;;;;;3.70;100.00;100721.31;5075237;28;20483;-66
2021/01/06 02:01:57;;;;;;;0.40;0.40;;;;;;;3.77;100.00;100724.63;5075222;28;20465;-66
2021/01/06 02:04:30;;;;;;;0.40;0.30;;;;;;;3.81;100.00;100724.94;5074987;28;20472;-66
2021/01/06 02:07:03;;;;;;;0.40;0.30;;;;;;;3.75;100.00;100724.06;5075370;28;20464;-66
2021/01/06 02:09:35;;;;;;;1.43;1.33;;;;;;;3.73;100.00;100715.47;5074520;28;20437;-66
2021/01/06 02:12:11;;;;;;;0.40;0.30;;;;;;;3.68;100.00;100715.44;5075040;28;20452;-66
2021/01/06 02:14:48;;;;;;;0.40;0.20;;;;;;;3.80;100.00;100713.38;5074624;28;20516;-66
2021/01/06 02:17:15;;;;;;;0.40;0.23;;;;;;;3.77;100.00;100711.22;5074625;28;20895;-67
2021/01/06 02:19:43;;;;;;;0.40;0.30;;;;;;;3.78;100.00;100707.47;5075171;28;20448;-67
2021/01/06 02:22:13;;;;;;;0.40;0.27;;;;;;;3.73;100.00;100712.00;5074403;28;20442;-67
2021/01/06 02:24:40;;;;;;;0.40;0.30;;;;;;;3.80;100.00;100705.34;5074578;28;20470;-66
2021/01/06 02:27:06;;;;;;;0.40;0.30;;;;;;;3.75;100.00;100716.00;5074940;28;20445;-66
2021/01/06 02:29:34;;;;;;;0.73;0.63;;;;;;;3.67;100.00;100708.44;5074770;28;20472;-66
2021/01/06 02:32:01;;;;;;;0.40;0.30;;;;;;;3.60;100.00;100704.34;5074750;28;20518;-67
2021/01/06 02:34:28;;;;;;;0.40;0.30;;;;;;;3.61;100.00;100701.41;5074363;28;20519;-68
2021/01/06 02:36:54;;;;;;;11.33;1.23;;;;;;;3.56;100.00;100705.91;5074573;28;20473;-67
2021/01/06 02:39:21;;;;;;;0.40;0.30;;;;;;;3.44;100.00;100695.31;5074525;28;20813;-66
2021/01/06 02:41:49;;;;;;;0.40;0.30;;;;;;;3.46;100.00;100698.59;5074052;28;20479;-66
2021/01/06 02:44:16;;;;;;;0.40;0.30;;;;;;;3.44;100.00;100681.94;5074531;28;20460;-66
2021/01/06 02:46:43;;;;;;;0.40;0.30;;;;;;;3.46;100.00;100683.31;5074313;28;20521;-66
2021/01/06 02:49:10;;;;;;;0.40;0.30;;;;;;;3.47;100.00;100682.25;5074167;28;20943;-67
2021/01/06 02:51:41;;;;;;;0.40;0.30;;;;;;;3.48;100.00;100683.06;5073956;28;20900;-66
2021/01/06 02:54:12;;;;;;;0.40;0.20;;;;;;;3.47;100.00;100676.91;5074225;28;20517;-66
2021/01/06 02:56:41;;;;;;;0.40;0.23;;;;;;;3.53;100.00;100675.06;5073770;28;20943;-66
2021/01/06 02:59:10;;;;;;;0.40;0.20;;;;;;;3.55;100.00;100672.97;5073977;28;20933;-66
2021/01/06 03:01:40;;;;;;;0.40;0.20;;;;;;;3.59;100.00;100673.28;5072926;28;20445;-67
2021/01/06 03:04:11;;;;;;;0.40;0.20;;;;;;;3.52;100.00;100676.13;5073643;28;20496;-66
2021/01/06 03:06:42;;;;;;;0.50;0.40;;;;;;;3.53;100.00;100670.53;5074273;28;20425;-67
2021/01/06 03:09:23;;;;;;;0.40;0.23;;;;;;;3.55;100.00;100664.94;5073518;28;20527;-66
2021/01/06 03:11:50;;;;;;;0.40;0.30;;;;;;;3.58;100.00;100661.72;5074361;28;20422;-67
2021/01/06 03:14:16;;;;;;;0.40;0.30;;;;;;;3.62;100.00;100657.50;5073260;28;20481;-66
2021/01/06 03:16:43;;;;;;;0.40;0.20;;;;;;;3.60;100.00;100654.28;5074066;28;20441;-66
2021/01/06 03:19:12;;;;;;;0.40;0.30;;;;;;;3.63;100.00;100658.28;5073343;28;20961;-66
2021/01/06 03:21:40;;;;;;;0.40;0.30;;;;;;;3.51;100.00;100648.56;5073755;28;20473;-66
2021/01/06 03:24:10;;;;;;;0.40;0.30;;;;;;;3.55;100.00;100651.53;5073481;28;20492;-66
2021/01/06 03:26:37;;;;;;;0.40;0.20;;;;;;;3.52;100.00;100649.38;5073777;28;20441;-66
2021/01/06 03:29:05;;;;;;;0.40;0.20;;;;;;;3.51;100.00;100642.41;5073142;28;20445;-66
2021/01/06 03:31:37;;;;;;;0.40;0.30;;;;;;;3.48;100.00;100642.91;5073713;28;20429;-66
2021/01/06 03:34:10;;;;;;;0.40;0.23;;;;;;;3.53;100.00;100638.38;5072972;28;20520;-66
2021/01/06 03:36:43;;;;;;;0.40;0.30;;;;;;;3.58;100.00;100634.16;5097334;23;21057;-76
2021/01/06 03:39:17;;;;;;;0.40;0.30;;;;;;;3.54;100.00;100640.03;5073898;28;20487;-76
2021/01/06 03:41:44;;;;;;;0.73;0.57;;;;;;;3.48;100.00;100641.03;5073878;28;20878;-77
2021/01/06 03:44:13;;;;;;;0.40;0.20;;;;;;;3.48;100.00;100638.34;5081244;22;20550;-65
2021/01/06 03:46:45;;;;;;;0.50;0.40;;;;;;;3.36;100.00;100642.22;5071379;28;21001;-65
2021/01/06 03:49:20;;;;;;;0.40;0.30;;;;;;;3.41;100.00;100639.59;5053699;28;20440;-65
2021/01/06 03:51:55;;;;;;;0.40;0.20;;;;;;;3.33;100.00;100640.06;5055738;28;20460;-65
2021/01/06 03:54:33;;;;;;;0.40;0.20;;;;;;;3.32;100.00;100627.72;5074163;28;20472;-64
2021/01/06 03:57:02;;;;;;;0.40;0.20;;;;;;;3.21;100.00;100619.59;5069441;28;20504;-65
2021/01/06 03:59:33;;;;;;;0.80;0.50;;;;;;;3.21;100.00;100622.28;5053099;28;20493;-65
2021/01/06 04:02:05;;;;;;;0.40;0.30;;;;;;;3.29;100.00;100626.38;5055899;28;20437;-65
2021/01/06 04:04:36;;;;;;;0.40;0.20;;;;;;;3.32;100.00;100619.69;5073343;28;20450;-65
2021/01/06 04:07:05;;;;;;;0.40;0.20;;;;;;;3.25;100.00;100620.72;5070072;28;20453;-65
2021/01/06 04:09:37;;;;;;;0.40;0.30;;;;;;;3.15;100.00;100625.16;5053202;28;20446;-64
2021/01/06 04:12:08;;;;;;;0.40;0.30;;;;;;;3.19;100.00;100613.69;5055005;28;20427;-65
2021/01/06 04:14:35;;;;;;;0.40;0.30;;;;;;;3.09;100.00;100610.09;5073406;28;20473;-65
2021/01/06 04:17:16;;;;;;;0.40;0.20;;;;;;;3.11;100.00;100610.66;5072376;28;20505;-66
2021/01/06 04:19:46;;;;;;;0.40;0.30;;;;;;;3.14;100.00;100607.47;5074127;28;20472;-64
2021/01/06 04:22:13;;;;;;;0.40;0.30;;;;;;;3.10;100.00;100607.19;5062699;28;20449;-64
2021/01/06 04:24:39;;;;;;;0.40;0.20;;;;;;;3.11;100.00;100602.63;5053137;28;20493;-64
2021/01/06 04:27:06;;;;;;;0.40;0.30;;;;;;;3.10;100.00;100609.00;5061108;28;20457;-65
2021/01/06 04:29:32;;;;;;;0.40;0.30;;;;;;;2.99;100.00;100605.44;5073203;28;20822;-64
2021/01/06 04:31:59;;;;;;;0.40;0.20;;;;;;;2.93;100.00;100607.25;5065877;28;20438;-64
2021/01/06 04:34:25;;;;;;;0.40;0.20;;;;;;;2.94;100.00;100597.34;5053307;28;20513;-64
2021/01/06 04:36:51;;;;;;;0.40;0.30;;;;;;;2.97;100.00;100602.22;5052761;28;20478;-64
2021/01/06 04:39:17;;;;;;;0.40;0.30;;;;;;;3.02;100.00;100599.59;5052625;28;20939;-65
2021/01/06 04:41:55;;;;;;;0.40;0.20;;;;;;;3.05;100.00;100596.38;5056212;28;20903;-65
2021/01/06 04:44:43;;;;;;;0.40;0.30;;;;;;;2.98;100.00;100598.47;5072639;28;20453;-64
2021/01/06 04:47:32;;;;;;;0.40;0.30;;;;;;;2.99;100.00;100594.72;5056250;28;20498;-65
2021/01/06 04:50:28;;;;;;;0.40;0.30;;;;;;;3.08;100.00;100598.56;5057874;28;20492;-64
2021/01/06 04:53:04;;;;;;;0.40;0.27;;;;;;;2.97;100.00;100596.84;5059890;28;20475;-65
2021/01/06 04:55:43;;;;;;;0.40;0.30;;;;;;;2.92;100.00;100594.09;5052787;28;20465;-65
2021/01/06 04:58:19;;;;;;;0.40;0.30;;;;;;;2.74;100.00;100590.69;5066018;28;20814;-63
2021/01/06 05:01:01;;;;;;;0.40;0.40;;;;;;;2.73;100.00;100594.41;5072839;28;20513;-64
2021/01/06 05:03:48;;;;;;;0.40;0.30;;;;;;;2.71;100.00;100593.06;5072189;28;20446;-64
2021/01/06 05:06:40;;;;;;;0.40;0.30;;;;;;;2.68;100.00;100591.69;5072671;28;20499;-64
2021/01/06 05:09:14;;;;;;;0.40;0.30;;;;;;;2.81;100.00;100592.38;5052661;28;20503;-65
2021/01/06 05:11:50;;;;;;;0.40;0.30;;;;;;;2.80;100.00;100591.56;5052651;28;20436;-64
2021/01/06 05:14:19;;;;;;;0.40;0.30;;;;;;;2.74;100.00;100596.03;5052574;28;20497;-65
2021/01/06 05:16:47;;;;;;;0.40;0.30;;;;;;;2.76;100.00;100601.16;5052636;28;20465;-64
2021/01/06 05:19:17;;;;;;;0.40;0.20;;;;;;;2.80;100.00;100594.25;5052522;28;20499;-64
2021/01/06 05:21:43;;;;;;;0.40;0.30;;;;;;;2.86;100.00;100597.78;5052540;28;20531;-64
2021/01/06 05:24:25;;;;;;;0.40;0.30;;;;;;;2.88;100.00;100592.97;5071680;28;20444;-65
2021/01/06 05:26:57;;;;;;;0.40;0.20;;;;;;;2.92;100.00;100588.75;5070219;28;20469;-65
2021/01/06 05:29:27;;;;;;;0.40;0.30;;;;;;;2.95;100.00;100593.59;5055873;28;20429;-63
2021/01/06 05:31:53;;;;;;;0.40;0.30;;;;;;;2.95;100.00;100588.25;5057109;28;20462;-65
2021/01/06 05:34:22;;;;;;;0.40;0.30;;;;;;;2.91;100.00;100589.81;5055594;28;20516;-64
2021/01/06 05:36:49;;;;;;;0.40;0.30;;;;;;;2.83;100.00;100588.38;5059852;28;20504;-65
2021/01/06 05:39:21;;;;;;;0.40;0.20;;;;;;;2.91;100.00;100587.13;5075933;28;20490;-65
2021/01/06 05:41:50;;;;;;;0.40;0.30;;;;;;;2.75;100.00;100586.97;5072333;28;20439;-65
2021/01/06 05:44:16;;;;;;;0.40;0.20;;;;;;;2.73;100.00;100581.03;5055607;28;20449;-64
2021/01/06 05:46:45;;;;;;;0.40;0.20;;;;;;;2.80;100.00;100580.88;5057146;28;20498;-65
2021/01/06 05:49:21;;;;;;;0.40;0.20;;;;;;;2.78;100.00;100582.97;5075686;28;20800;-65
2021/01/06 05:51:54;;;;;;;0.40;0.30;;;;;;;2.72;100.00;100584.78;5073640;28;20421;-65
2021/01/06 05:54:26;;;;;;;0.40;0.30;;;;;;;2.65;100.00;100580.66;5055617;28;20501;-65
2021/01/06 05:57:10;;;;;;;0.40;0.30;;;;;;;2.67;100.00;100583.91;5057470;28;20464;-65
2021/01/06 06:00:09;;;;;;;0.40;0.20;;;;;;;2.65;100.00;100576.13;5075607;28;20459;-65
2021/01/06 06:02:43;;;;;;;0.40;0.30;;;;;;;2.72;100.00;100576.75;5060232;28;20482;-65
2021/01/06 06:05:19;;;;;;;0.40;0.30;;;;;;;2.69;100.00;100573.78;5067764;28;20494;-64
2021/01/06 06:08:13;;;;;;;0.40;0.20;;;;;;;2.65;100.00;100572.66;5063094;28;20468;-63
2021/01/06 06:11:04;;;;;;;0.40;0.30;;;;;;;2.60;100.00;100577.94;5064047;28;20438;-61
2021/01/06 06:13:52;;;;;;;0.40;0.30;;;;;;;2.51;100.00;100574.88;5063982;28;20441;-62
2021/01/06 06:16:30;;;;;;;0.40;0.30;;;;;;;2.49;100.00;100563.66;5063577;28;20472;-62
2021/01/06 06:19:22;;;;;;;0.70;0.40;;;;;;;2.56;100.00;100566.13;5062959;28;20434;-63
2021/01/06 06:21:59;;;;;;;0.40;0.30;;;;;;;2.63;100.00;100567.56;5055231;28;20466;-66
2021/01/06 06:24:41;;;;;;;0.40;0.30;;;;;;;2.72;100.00;100558.03;5065089;28;20433;-63
2021/01/06 06:27:51;;;;;;;0.40;0.20;;;;;;;2.70;100.00;100554.00;5066136;28;21006;-63
2021/01/06 06:30:27;;;;;;;0.40;0.23;;;;;;;2.67;100.00;100566.00;5023799;28;20419;-62
2021/01/06 06:32:53;;;;;;;0.40;0.30;;;;;;;2.71;100.00;100561.78;5061170;28;20471;-63
2021/01/06 06:35:25;;;;;;;0.40;0.30;;;;;;;2.68;100.00;100558.78;5064642;28;21002;-63
2021/01/06 06:37:55;;;;;;;0.40;0.30;;;;;;;2.60;100.00;100559.22;5062118;28;20991;-63
2021/01/06 06:40:24;;;;;;;0.40;0.20;;;;;;;2.61;100.00;100558.16;5061342;28;20935;-65
2021/01/06 06:42:59;;;;;;;0.40;0.30;;;;;;;2.57;100.00;100557.03;5082440;28;20443;-63
2021/01/06 06:45:42;;;;;;;0.40;0.30;;;;;;;2.59;100.00;100546.91;5080767;28;20501;-63
2021/01/06 06:48:15;;;;;;;0.40;0.30;;;;;;;2.60;100.00;100565.38;5084918;28;20988;-64
2021/01/06 06:50:51;;;;;;;0.40;0.20;;;;;;;2.60;100.00;100554.69;5083982;28;20988;-63
2021/01/06 06:53:28;;;;;;;0.40;0.30;;;;;;;2.53;100.00;100554.88;5083492;28;20424;-64
2021/01/06 06:56:07;;;;;;;0.40;0.30;;;;;;;2.50;100.00;100555.38;5085132;28;21171;-63
2021/01/06 06:58:44;;;;;;;0.40;0.20;;;;;;;2.52;100.00;100552.44;5084429;28;20554;-63
2021/01/06 07:01:14;;;;;;;0.40;0.20;;;;;;;2.51;100.00;100554.31;5083761;28;20428;-64
2021/01/06 07:03:50;;;;;;;0.40;0.30;;;;;;;2.55;100.00;100559.97;5085032;28;20441;-63
2021/01/06 07:06:18;;;;;;;0.40;0.20;;;;;;;2.48;100.00;100559.34;5084553;28;20472;-63
2021/01/06 07:08:47;;;;;;;0.40;0.30;;;;;;;2.34;100.00;100561.56;5084844;28;20449;-63
2021/01/06 07:11:25;;;;;;;0.40;0.20;;;;;;;2.27;100.00;100551.06;5084733;28;20829;-63
2021/01/06 07:13:56;;;;;;;0.40;0.30;;;;;;;2.39;100.00;100558.16;5083783;28;20440;-64
2021/01/06 07:16:31;;;;;;;0.40;0.30;;;;;;;2.31;100.00;100553.25;5082957;28;20469;-63
2021/01/06 07:19:13;;;;;;;0.40;0.30;;;;;;;2.26;100.00;100549.44;5088733;28;20434;-64
2021/01/06 07:21:40;;;;;;;0.40;0.30;;;;;;;2.28;100.00;100552.66;5089086;28;20430;-64
2021/01/06 07:24:17;;;;;;;0.40;0.30;;;;;;;2.34;100.00;100561.56;5088614;28;20450;-64
2021/01/06 07:26:48;;;;;;;0.40;0.30;;;;;;;2.34;100.00;100563.44;5087352;28;20457;-63
2021/01/06 07:29:18;;;;;;;0.40;0.20;;;;;;;2.34;100.00;100560.75;5087924;28;20429;-63
2021/01/06 07:31:54;;;;;;;0.40;0.30;;;;;;;2.27;100.00;100566.28;5087342;28;20455;-62
2021/01/06 07:34:23;;;;;;;0.40;0.30;;;;;;;2.15;100.00;100569.06;5086683;28;20504;-63
2021/01/06 07:36:53;;;;;;;0.40;0.30;;;;;;;2.23;100.00;100571.31;5075094;28;20480;-63
2021/01/06 07:39:22;;;;;;;0.40;0.30;;;;;;;2.25;100.00;100560.38;5065278;28;20443;-64
2021/01/06 07:41:50;;;;;;;0.50;0.40;;;;;;;2.35;100.00;100573.09;5064503;28;20438;-65
2021/01/06 07:44:23;;;;;;;0.40;0.30;;;;;;;2.35;100.00;100578.44;5063702;28;20454;-65
2021/01/06 07:47:04;;;;;;;0.40;0.30;;;;;;;2.23;100.00;100565.16;5065059;28;20458;-64
2021/01/06 07:49:51;;;;;;;0.40;0.30;;;;;;;2.26;100.00;100576.19;5064424;28;20462;-64
2021/01/06 07:52:40;;;;;;;0.40;0.30;;;;;;;2.33;100.00;100565.28;5064750;28;20422;-63
2021/01/06 07:55:22;;;;;;;0.40;0.30;;;;;;;2.34;100.00;100561.56;5064738;28;20494;-63
2021/01/06 07:57:54;;;;;;;0.53;0.47;;;;;;;2.34;100.00;100563.44;5064693;28;20533;-64
2021/01/06 08:00:28;;;;;;;0.40;0.20;;;;;;;2.40;100.00;100565.94;5060024;28;20431;-64
2021/01/06 08:03:05;;;;;;;0.40;0.30;;;;;;;2.42;100.00;100560.34;5055646;28;20461;-65
2021/01/06 08:05:34;;;;;;;0.40;0.30;;;;;;;2.41;100.00;100561.41;5053957;28;20432;-66
2021/01/06 08:08:14;;;;;;;0.40;0.30;;;;;;;2.45;100.00;100557.19;5053351;28;20813;-64
2021/01/06 08:10:42;;;;;;;0.40;0.20;;;;;;;2.42;100.00;100560.34;5054036;28;20422;-65
2021/01/06 08:13:20;;;;;;;0.40;0.30;;;;;;;2.49;100.00;100558.31;5053533;28;20455;-65
2021/01/06 08:15:49;;;;;;;0.40;0.20;;;;;;;2.45;100.00;100562.53;5053160;28;20490;-66
2021/01/06 08:18:36;;;;;;;0.40;0.20;;;;;;;2.45;100.00;100557.19;5053536;28;20491;-66
2021/01/06 08:21:13;;;;;;;0.40;0.30;;;;;;;2.45;100.00;100563.31;5053771;28;20833;-65
2021/01/06 08:23:58;;;;;;;0.40;0.30;;;;;;;2.45;100.00;100552.63;5052964;28;20457;-65
2021/01/06 08:26:26;;;;;;;0.40;0.30;;;;;;;2.50;100.00;100550.03;5053175;28;20523;-66
2021/01/06 08:29:08;;;;;;;0.50;0.40;;;;;;;2.49;100.00;100553.75;5053101;28;20441;-66
2021/01/06 08:31:36;;;;;;;0.40;0.20;;;;;;;2.41;100.00;100553.38;5053268;28;20778;-65
2021/01/06 08:34:02;;;;;;;0.40;0.30;;;;;;;2.40;100.00;100547.22;5053203;28;20531;-65
2021/01/06 08:36:31;;;;;;;0.40;0.20;;;;;;;2.45;100.00;100539.25;5053137;28;20491;-66
2021/01/06 08:39:15;;;;;;;0.40;0.30;;;;;;;2.48;100.00;100548.66;5053186;28;20495;-65
2021/01/06 08:41:42;;;;;;;0.50;0.40;;;;;;;2.40;100.00;100541.06;5052822;28;20429;-65
2021/01/06 08:44:28;;;;;;;0.40;0.30;;;;;;;2.46;100.00;100548.91;5052804;28;20450;-65
2021/01/06 08:46:56;;;;;;;1.77;0.50;;;;;;;2.48;100.00;100559.34;5052898;28;20466;-66
2021/01/06 08:49:25;;;;;;;0.40;0.30;;;;;;;2.51;100.00;100553.50;5052590;28;20453;-65
2021/01/06 08:51:55;;;;;;;0.40;0.30;;;;;;;2.51;100.00;100559.66;5052636;28;20450;-65
2021/01/06 08:54:31;;;;;;;0.40;0.20;;;;;;;2.47;100.00;100555.03;5053091;28;20480;-66
2021/01/06 08:57:03;;;;;;;0.40;0.20;;;;;;;2.44;100.00;100552.88;5052985;28;20465;-66
2021/01/06 08:59:35;;;;;;;0.40;0.30;;;;;;;2.47;100.00;100563.88;5054377;28;20850;-65
2021/01/06 09:02:03;;;;;;;0.40;0.30;;;;;;;2.47;100.00;100565.75;5056870;28;20433;-65
2021/01/06 09:04:37;;;;;;;0.60;0.40;;;;;;;2.50;100.00;100565.25;5056633;28;20467;-65
2021/01/06 09:07:14;;;;;;;2.20;0.50;;;;;;;2.53;100.00;100567.44;5056562;28;20449;-65
2021/01/06 09:09:57;;;;;;;0.40;0.30;;;;;;;2.53;100.00;100570.91;5056567;28;20465;-65
2021/01/06 09:12:28;;;;;;;0.40;0.30;;;;;;;2.52;100.00;100571.16;5056215;28;20953;-67
2021/01/06 09:14:58;;;;;;;0.40;0.30;;;;;;;2.58;100.00;100567.50;5056869;28;20498;-66
2021/01/06 09:17:35;;;;;;;0.50;0.50;;;;;;;2.65;100.00;100567.31;5056443;28;20472;-67
2021/01/06 09:20:06;;;;;;;0.40;0.30;;;;;;;2.72;100.00;100568.75;5056065;28;20461;-66
2021/01/06 09:22:33;;;;;;;0.40;0.40;;;;;;;2.67;100.00;100566.00;5056252;28;20430;-66
2021/01/06 09:24:59;;;;;;;0.50;0.30;;;;;;;2.70;100.00;100560.16;5056095;28;20456;-64
2021/01/06 09:27:34;;;;;;;0.40;0.30;;;;;;;2.67;100.00;100563.34;5056043;28;20496;-66
2021/01/06 09:30:06;;;;;;;0.40;0.30;;;;;;;2.75;100.00;100560.22;5056192;28;20426;-66
2021/01/06 09:32:35;;;;;;;0.40;0.30;;;;;;;2.74;100.00;100565.81;5056134;28;20441;-66
2021/01/06 09:35:10;;;;;;;0.40;0.20;;;;;;;2.74;100.00;100566.59;5055725;28;20584;-66
2021/01/06 09:37:41;;;;;;;0.40;0.30;;;;;;;2.84;100.00;100565.94;5089718;23;20534;-70
2021/01/06 09:40:14;;;;;;;0.40;0.20;;;;;;;2.85;100.00;100564.88;5075579;28;20460;-68
2021/01/06 09:42:41;;;;;;;0.80;0.33;;;;;;;2.80;100.00;100564.03;5075915;28;20440;-69
2021/01/06 09:45:19;;;;;;;0.40;0.30;;;;;;;2.78;100.00;100559.72;5075776;28;20463;-70
2021/01/06 09:47:47;;;;;;;0.40;0.30;;;;;;;2.60;100.00;100570.72;5075785;28;20468;-73
2021/01/06 09:50:21;;;;;;;0.40;0.30;;;;;;;2.68;100.00;100564.13;5075375;28;20446;-69
2021/01/06 09:52:50;;;;;;;0.40;0.30;;;;;;;2.70;100.00;100560.16;5075651;28;20433;-68
2021/01/06 09:55:19;;;;;;;0.40;0.20;;;;;;;2.76;100.00;100559.16;5075118;28;20524;-66
2021/01/06 09:57:50;;;;;;;0.40;0.30;;;;;;;2.81;100.00;100553.06;5075230;28;20475;-69
2021/01/06 10:00:32;;;;;;;0.40;0.23;;;;;;;2.80;100.00;100556.00;5075839;28;20470;-68
2021/01/06 10:03:00;;;;;;;0.40;0.20;;;;;;;2.71;100.00;100556.44;5075194;28;20918;-69
2021/01/06 10:05:39;;;;;;;0.40;0.20;;;;;;;2.75;100.00;100552.19;5075361;28;20442;-69
2021/01/06 10:08:20;;;;;;;0.40;0.30;;;;;;;2.76;100.00;100553.00;5075047;28;20974;-69
2021/01/06 10:10:51;;;;;;;0.40;0.30;;;;;;;2.81;100.00;100554.94;5074819;28;20469;-71
2021/01/06 10:13:29;;;;;;;0.40;0.20;;;;;;;2.81;100.00;100554.94;5075276;28;20848;-67
2021/01/06 10:16:02;;;;;;;0.40;0.30;;;;;;;2.82;100.00;100549.31;5074865;28;20469;-68
2021/01/06 10:18:35;;;;;;;0.60;0.60;;;;;;;2.84;100.00;100543.75;5074776;28;20457;-69
2021/01/06 10:21:07;;;;;;;0.40;0.20;;;;;;;2.85;100.00;100540.81;5074866;28;20483;-68
2021/01/06 10:23:42;;;;;;;0.40;0.30;;;;;;;2.78;100.00;100546.34;5075181;28;20453;-68
2021/01/06 10:26:32;;;;;;;0.40;0.30;;;;;;;2.81;100.00;100538.88;5074757;28;20434;-69
2021/01/06 10:29:11;;;;;;;0.40;0.30;;;;;;;2.89;100.00;100530.41;5075231;28;20456;-68
2021/01/06 10:32:02;;;;;;;0.40;0.30;;;;;;;2.85;100.00;100521.28;5075021;28;20801;-69
2021/01/06 10:34:35;;;;;;;0.40;0.30;;;;;;;2.99;100.00;100525.97;5074577;28;20500;-71
2021/01/06 10:37:19;;;;;;;0.40;0.20;;;;;;;3.00;100.00;100524.09;5074590;28;20505;-69
2021/01/06 10:39:48;;;;;;;0.40;0.20;;;;;;;3.07;100.00;100516.69;5074461;28;20903;-68
2021/01/06 10:42:33;;;;;;;0.40;0.20;;;;;;;3.14;100.00;100525.31;5074688;28;20517;-68
2021/01/06 10:45:06;;;;;;;0.40;0.30;;;;;;;3.17;100.00;100515.97;5074891;28;20422;-69
2021/01/06 10:47:51;;;;;;;0.40;0.20;;;;;;;3.18;100.00;100512.22;5074267;28;21048;-68
2021/01/06 10:50:40;;;;;;;0.40;0.30;;;;;;;3.22;100.00;100511.47;5074467;28;20441;-68
2021/01/06 10:53:15;;;;;;;0.40;0.30;;;;;;;3.19;100.00;100509.31;5074457;28;20441;-68
2021/01/06 10:55:45;;;;;;;0.50;0.40;;;;;;;3.12;100.00;100507.91;5074379;28;20841;-69
2021/01/06 10:58:22;;;;;;;0.40;0.20;;;;;;;3.17;100.00;100494.56;5074306;28;20503;-69
2021/01/06 11:01:03;;;;;;;0.40;0.20;;;;;;;3.17;100.00;100499.91;5074074;28;20441;-69
2021/01/06 11:03:50;;;;;;;0.40;0.30;;;;;;;3.18;100.00;100496.19;5074057;28;20464;-70
2021/01/06 11:06:22;;;;;;;0.40;0.30;;;;;;;3.10;100.00;100489.44;5073896;28;20463;-69
2021/01/06 11:09:01;;;;;;;0.40;0.27;;;;;;;2.99;100.00;100488.53;5074191;28;20508;-69
2021/01/06 11:11:59;;;;;;;0.40;0.30;;;;;;;3.10;100.00;100492.13;5073999;28;20958;-69
2021/01/06 11:14:59;;;;;;;0.40;0.20;;;;;;;3.18;100.00;100485.47;5073986;28;20484;-69
2021/01/06 11:17:31;;;;;;;0.40;0.20;;;;;;;3.20;100.00;100483.38;5068675;28;20473;-70
2021/01/06 11:20:00;;;;;;;0.40;0.30;;;;;;;3.18;100.00;100480.13;5073967;28;20461;-70
2021/01/06 11:22:39;;;;;;;0.40;0.23;;;;;;;3.14;100.00;100474.47;5073341;28;20502;-70
2021/01/06 11:25:35;;;;;;;0.40;0.30;;;;;;;3.17;100.00;100476.63;5073858;28;20425;-68
2021/01/06 11:28:23;;;;;;;0.40;0.30;;;;;;;3.24;100.00;100474.56;5073710;28;20512;-69
2021/01/06 11:31:18;;;;;;;0.40;0.20;;;;;;;3.31;100.00;100473.53;5073736;28;20414;-69
2021/01/06 11:33:45;;;;;;;0.40;0.30;;;;;;;3.33;100.00;100471.44;5073652;28;20417;-69
2021/01/06 11:36:42;;;;;;;0.40;0.30;;;;;;;3.38;100.00;100469.59;5073396;28;20493;-70
2021/01/06 11:39:11;;;;;;;0.40;0.23;;;;;;;3.46;100.00;100462.97;5073581;28;20433;-69
2021/01/06 11:41:59;;;;;;;0.40;0.30;;;;;;;3.46;100.00;100465.66;5073536;28;20453;-69
2021/01/06 11:44:32;;;;;;;0.40;0.20;;;;;;;3.50;100.00;100458.72;5073543;28;20476;-70
2021/01/06 11:47:11;;;;;;;0.50;0.50;;;;;;;3.48;100.00;100458.16;5073412;28;20500;-69
2021/01/06 11:49:56;;;;;;;0.40;0.30;;;;;;;3.50;100.00;100456.03;5073559;28;20421;-69
2021/01/06 11:52:30;;;;;;;0.40;0.30;;;;;;;3.51;100.00;100460.31;5073244;28;20433;-69